McChord Air Force Base
KTCM : now visible

Airfield :











YOU CAN JOIN US ON...

 
LOGIN :

Register | Disclaimer

   EN    FR    IT 

 









Legend :    VFR   Marginal VFR   IFR   Intensive IFR   Very Intensive IFR
Visi :
Ceiling :
>= 8 km
>= 3000ft
5 to 8 km
1000 to 3000 ft
1500m to 5 km
500 to 1000 ft
800 to 1500m
200 to 500 ft
< 800m
< 200 ft
Symbols :   Thunderstorms  Fog  Heavy snow  Heavy precipitations  Wind > 20 kt






- Airport Elevation : 322 ft


KTCM - McChord Air Force Base

CURRENT METAR :
  • 260758Z AUTO 31004KT 10SM -RA BKN060 BKN075 08/08 A2978 RMK AO2 RAB46E56RAB57 SLP089 P0000 T00750075 401250058 $

EXPIRED METARs :
  • 260746Z AUTO 36005KT 10SM -RA FEW040 FEW050 FEW075 07/07 A2977 RMK AO2 RAB46 PRESFR SLP086 $
  • 260658Z AUTO 00000KT 10SM FEW090 08/08 A2983 RMK AO2 SLP106 T00760076 $
  • 260558Z AUTO 03003KT 10SM BKN100 08/08 A2982 RMK AO2 SLP103 T00750075 10105 20074 57037 $

TAF TAF KTCM
Valid from the 26 at 05:00 until the 27 at 11:00 UTC


260500Z 2605/2711 17006KT 8000 -SHRA BKN020 OVC040 610709 QNH2996INS
TEMPO 2607/2613 BKN010
BECMG 2613/2614 20012KT 9000 -SHRA BKN015 OVC025 610409 QNH2986INS
TEMPO 2614/2620 20012G20KT
BECMG 2703/2704 19012G18KT 8000 -SHRA BKN025 OVC030 610409 QNH2995INS TX11/2621Z TN06/2606Z



MET'MAP, your aeronautical weather chart ! - Copyright ORBIFLY December 2007 - Disclaimer

ORBIFLY MET'MAP TEAM :

Programming & Development : Alexandra Zaïnal
Concept & original design : Baudouin d'Aumeries
Assistance for programming : Marc-Olivier Méhu
Technical & hardware support : Manuel Goepfert

Contact : metmap@orbifly.com




SOURCES & CREDITS :

   NOAA       Earth
Advisory